Time;durP1;ratioP1;P1;durP2;ratioP2;P2;SDS_P1;SDS_P2;PMS_P1;PMS_P2;Temp;Humidity;BMP_temperature;BMP_pressure;BME280_temperature;BME280_humidity;BME280_pressure;Samples;Min_cycle;Max_cycle;Signal;HPM_P1;HPM_P2
2023/07/11 00:02:04;;;;;;;1.95;1.70;;;;;;;22.01;100.00;97912.44;1223388;75;2923759;-69
2023/07/11 00:04:38;;;;;;;1.65;1.40;;;;;;;21.96;100.00;97898.63;1224156;75;2917948;-64
2023/07/11 00:07:11;;;;;;;2.25;1.70;;;;;;;21.93;100.00;97892.13;1223937;75;2925726;-66
2023/07/11 00:09:43;;;;;;;1.60;1.30;;;;;;;21.89;100.00;97900.09;1224639;75;2923756;-69
2023/07/11 00:12:16;;;;;;;1.95;1.55;;;;;;;21.84;100.00;97896.16;1223883;75;2944646;-69
2023/07/11 00:14:51;;;;;;;2.85;1.70;;;;;;;21.87;100.00;97894.31;1224268;75;2921093;-66
2023/07/11 00:17:24;;;;;;;1.95;1.60;;;;;;;21.75;100.00;97899.44;1223542;75;2940590;-67
2023/07/11 00:20:00;;;;;;;2.30;1.60;;;;;;;21.77;100.00;97905.22;1223391;75;2917762;-63
2023/07/11 00:22:34;;;;;;;2.55;1.75;;;;;;;21.66;100.00;97905.50;1223914;75;2924896;-65
2023/07/11 00:25:09;;;;;;;1.95;1.60;;;;;;;21.62;100.00;97899.53;1224078;75;2928162;-66
2023/07/11 00:27:42;;;;;;;1.65;1.45;;;;;;;21.53;100.00;97902.78;1223806;75;2935638;-65
2023/07/11 00:30:18;;;;;;;2.40;1.75;;;;;;;21.42;100.00;97892.69;1223458;75;2926154;-67
2023/07/11 00:32:50;;;;;;;3.20;2.20;;;;;;;21.26;100.00;97892.53;1222945;75;2927376;-67
2023/07/11 00:35:24;;;;;;;2.55;2.10;;;;;;;21.42;100.00;97904.56;1223593;75;2928120;-65
2023/07/11 00:37:57;;;;;;;3.50;2.50;;;;;;;21.30;100.00;97903.34;1223925;75;2921836;-65
2023/07/11 00:40:30;;;;;;;2.25;1.95;;;;;;;21.38;100.00;97895.03;1223666;75;2933266;-66
2023/07/11 00:43:04;;;;;;;1.85;1.65;;;;;;;21.33;100.00;97902.22;1223651;75;2923790;-67
2023/07/11 00:46:15;;;;;;;2.15;1.95;;;;;;;21.32;100.00;97895.19;1224369;75;2920621;-65
2023/07/11 00:48:51;;;;;;;3.30;1.65;;;;;;;21.37;100.00;97899.13;1224490;75;2917587;-66
2023/07/11 00:51:30;;;;;;;2.35;1.90;;;;;;;21.08;100.00;97892.75;1223179;75;2927429;-67
2023/07/11 00:54:03;;;;;;;3.10;2.15;;;;;;;21.07;100.00;97897.56;1223722;75;2926931;-68
2023/07/11 00:56:40;;;;;;;3.35;2.65;;;;;;;21.05;100.00;97900.16;1223978;75;2925386;-65
2023/07/11 00:59:14;;;;;;;3.75;2.60;;;;;;;20.80;100.00;97897.66;1223943;75;2935197;-67
2023/07/11 01:01:58;;;;;;;3.45;2.60;;;;;;;20.76;100.00;97894.47;1224032;75;2922655;-67
2023/07/11 01:04:31;;;;;;;3.75;3.20;;;;;;;20.64;100.00;97896.00;1222608;75;2923165;-67
2023/07/11 01:07:04;;;;;;;4.45;3.30;;;;;;;20.73;100.00;97897.56;1224152;75;2927271;-66
2023/07/11 01:09:37;;;;;;;2.90;2.60;;;;;;;20.66;100.00;97895.44;1223362;75;2920864;-67
2023/07/11 01:12:13;;;;;;;3.45;2.55;;;;;;;20.81;100.00;97892.84;1222892;75;2923278;-68
2023/07/11 01:14:49;;;;;;;2.60;2.40;;;;;;;20.92;100.00;97883.47;1223678;75;2933292;-68
2023/07/11 01:17:31;;;;;;;2.55;2.10;;;;;;;20.68;100.00;97890.84;1222901;75;2928714;-67
2023/07/11 01:20:08;;;;;;;3.10;2.45;;;;;;;20.78;100.00;97877.97;1223767;75;2929797;-64
2023/07/11 01:22:43;;;;;;;3.05;2.30;;;;;;;20.82;100.00;97891.53;1224328;75;2923319;-66
2023/07/11 01:25:18;;;;;;;2.20;2.00;;;;;;;20.66;100.00;97885.09;1223543;75;2922669;-66
2023/07/11 01:27:52;;;;;;;3.00;2.30;;;;;;;20.64;100.00;97877.28;1223503;75;2928730;-65
2023/07/11 01:30:26;;;;;;;3.90;2.65;;;;;;;20.51;100.00;97879.31;1224082;75;2927347;-66
2023/07/11 01:32:58;;;;;;;3.65;2.75;;;;;;;20.33;100.00;97876.13;1224496;75;2924484;-67
2023/07/11 01:35:31;;;;;;;5.95;3.30;;;;;;;20.24;100.00;97876.56;1224029;75;2922004;-66
2023/07/11 01:38:06;;;;;;;5.00;3.90;;;;;;;20.26;100.00;97873.28;1223879;75;2919462;-67
2023/07/11 01:40:39;;;;;;;3.75;2.85;;;;;;;20.41;100.00;97871.41;1224688;75;2926526;-68
2023/07/11 01:43:11;;;;;;;3.30;2.25;;;;;;;20.54;100.00;97875.44;1223837;75;2924038;-66
2023/07/11 01:45:44;;;;;;;2.50;2.00;;;;;;;20.59;100.00;97882.97;1224620;75;2923250;-68
2023/07/11 01:48:16;;;;;;;2.80;2.45;;;;;;;20.42;100.00;97872.91;1224690;75;2916970;-67
2023/07/11 01:50:49;;;;;;;3.40;2.50;;;;;;;20.48;100.00;97877.59;1224064;75;2923619;-68
2023/07/11 01:53:24;;;;;;;2.40;2.10;;;;;;;20.45;100.00;97873.88;1223399;83;2927124;-66
2023/07/11 01:56:01;;;;;;;2.55;2.20;;;;;;;20.52;100.00;97889.91;1223747;75;2927076;-68
2023/07/11 01:58:36;;;;;;;2.70;2.30;;;;;;;20.24;100.00;97879.34;1224076;75;2926036;-67
2023/07/11 02:01:08;;;;;;;2.30;2.00;;;;;;;20.40;100.00;97883.09;1224597;75;2926934;-68
2023/07/11 02:03:41;;;;;;;4.65;2.50;;;;;;;20.22;100.00;97873.56;1223682;75;2925126;-65
2023/07/11 02:06:13;;;;;;;3.10;2.80;;;;;;;20.17;100.00;97880.75;1223615;75;2929461;-66
2023/07/11 02:08:49;;;;;;;2.90;2.50;;;;;;;20.03;100.00;97876.47;1223894;75;2926074;-67
2023/07/11 02:11:22;;;;;;;3.35;2.90;;;;;;;20.07;100.00;97884.50;1223314;75;2922829;-67
2023/07/11 02:13:54;;;;;;;2.80;2.30;;;;;;;20.16;100.00;97884.09;1224619;75;2927367;-67
2023/07/11 02:16:27;;;;;;;3.95;2.60;;;;;;;20.16;100.00;97875.75;1224300;75;2923641;-68
2023/07/11 02:19:00;;;;;;;2.55;2.15;;;;;;;20.26;100.00;97876.78;1223088;75;2927161;-66
2023/07/11 02:21:33;;;;;;;2.15;1.95;;;;;;;20.21;100.00;97875.63;1223618;75;2920955;-66
2023/07/11 02:24:11;;;;;;;2.45;1.90;;;;;;;20.21;100.00;97883.22;1224130;75;2925104;-66
2023/07/11 02:26:43;;;;;;;2.90;2.10;;;;;;;20.13;100.00;97882.34;1224310;75;2922056;-67
2023/07/11 02:29:16;;;;;;;2.80;2.55;;;;;;;19.88;100.00;97885.34;1224212;75;2925245;-65
2023/07/11 02:31:49;;;;;;;4.50;2.45;;;;;;;20.02;100.00;97879.81;1224481;75;2921504;-66
2023/07/11 02:34:22;;;;;;;2.70;2.25;;;;;;;20.06;100.00;97883.75;1223993;75;2914450;-66
2023/07/11 02:36:54;;;;;;;3.15;2.20;;;;;;;20.04;100.00;97877.25;1224044;75;2942697;-69
2023/07/11 02:39:30;;;;;;;2.00;1.70;;;;;;;20.06;100.00;97878.22;1224209;75;2921841;-67
2023/07/11 02:42:02;;;;;;;2.10;1.90;;;;;;;19.82;100.00;97884.72;1222170;75;3012149;-67
2023/07/11 02:44:35;;;;;;;3.30;2.50;;;;;;;19.72;100.00;97891.97;1224109;75;2933929;-66
2023/07/11 02:47:08;;;;;;;4.30;2.85;;;;;;;19.52;100.00;97888.50;1224620;75;2924819;-65
2023/07/11 02:49:41;;;;;;;4.90;3.00;;;;;;;19.38;100.00;97886.97;1219113;75;3255008;-65
2023/07/11 02:52:13;;;;;;;3.20;2.85;;;;;;;19.50;100.00;97890.31;1224462;75;2934036;-63
2023/07/11 02:54:49;;;;;;;3.55;2.95;;;;;;;19.50;100.00;97895.88;1224331;75;2929866;-66
2023/07/11 02:57:21;;;;;;;3.30;2.75;;;;;;;19.58;100.00;97893.97;1224488;75;2928637;-66
2023/07/11 02:59:54;;;;;;;3.45;2.75;;;;;;;19.46;100.00;97893.41;1225048;75;2857443;-67
2023/07/11 03:02:27;;;;;;;4.15;2.70;;;;;;;19.36;100.00;97900.63;1222915;75;2924631;-66
2023/07/11 03:04:59;;;;;;;6.00;2.90;;;;;;;;;;1224754;75;2921609;-66
2023/07/11 03:07:31;;;;;;;3.70;2.90;;;;;;;19.42;100.00;97903.34;1224028;75;2924153;-66
2023/07/11 03:10:07;;;;;;;4.45;2.80;;;;;;;19.31;100.00;97895.91;1224360;75;2924472;-68
2023/07/11 03:12:40;;;;;;;2.70;2.40;;;;;;;19.54;100.00;97893.53;1223992;75;2927464;-64
2023/07/11 03:15:13;;;;;;;2.70;2.00;;;;;;;19.56;100.00;97900.03;1223417;75;2934316;-66
2023/07/11 03:17:45;;;;;;;3.25;1.80;;;;;;;19.63;100.00;97897.94;1224151;75;2924681;-65
2023/07/11 03:20:18;;;;;;;2.55;2.05;;;;;;;19.59;100.00;97901.75;1223566;75;2921320;-66
2023/07/11 03:22:51;;;;;;;2.55;2.15;;;;;;;19.64;100.00;97910.53;1224381;75;2921857;-66
2023/07/11 03:25:26;;;;;;;2.20;2.00;;;;;;;19.56;100.00;97900.03;1223761;75;2920749;-68
2023/07/11 03:27:59;;;;;;;2.05;1.80;;;;;;;19.64;100.00;97897.38;1223830;75;2930741;-67
2023/07/11 03:30:33;;;;;;;3.45;2.60;;;;;;;19.44;100.00;97892.44;1223960;75;2933433;-68
2023/07/11 03:33:06;;;;;;;2.40;2.15;;;;;;;19.61;100.00;97904.00;1219429;75;3157115;-68
2023/07/11 03:35:39;;;;;;;3.15;2.45;;;;;;;19.43;100.00;97910.38;1224262;67;2926617;-67
2023/07/11 03:38:12;;;;;;;5.40;2.85;;;;;;;19.25;100.00;97898.78;1223587;75;2923801;-68
2023/07/11 03:40:47;;;;;;;3.60;2.95;;;;;;;19.44;100.00;97898.75;1217813;75;3269152;-66
2023/07/11 03:43:20;;;;;;;2.70;2.40;;;;;;;19.47;100.00;97903.22;1223034;75;3036482;-67
2023/07/11 03:45:52;;;;;;;3.20;2.30;;;;;;;19.52;100.00;97898.88;1223781;75;2944403;-65
2023/07/11 03:48:25;;;;;;;2.50;1.85;;;;;;;19.61;100.00;97892.91;1224646;75;2919476;-68
2023/07/11 03:50:58;;;;;;;2.85;1.80;;;;;;;19.44;100.00;97898.00;1224519;75;2919914;-68
2023/07/11 03:53:30;;;;;;;2.60;2.10;;;;;;;19.60;100.00;97896.94;1224191;75;2924669;-68
2023/07/11 03:56:05;;;;;;;2.55;2.00;;;;;;;19.67;100.00;97898.34;1223853;75;2923299;-66
2023/07/11 03:58:38;;;;;;;2.35;1.85;;;;;;;19.67;100.00;97899.09;1224696;75;2920080;-68
2023/07/11 04:01:11;;;;;;;2.90;2.50;;;;;;;19.67;100.00;97901.13;1224470;75;2929306;-67
2023/07/11 04:03:43;;;;;;;2.50;2.30;;;;;;;19.76;100.00;97897.97;1224525;75;2917735;-67
2023/07/11 04:06:16;;;;;;;2.50;2.20;;;;;;;19.75;100.00;97899.25;1224958;75;2919476;-66
2023/07/11 04:08:49;;;;;;;2.65;1.90;;;;;;;19.78;100.00;97895.41;1224304;75;2934866;-67
2023/07/11 04:11:25;;;;;;;5.30;2.65;;;;;;;19.55;100.00;97895.00;1223786;75;2926566;-66
2023/07/11 04:13:57;;;;;;;4.20;2.40;;;;;;;19.77;100.00;97897.44;1223830;75;2930717;-68
2023/07/11 04:16:30;;;;;;;2.35;2.05;;;;;;;19.85;100.00;97892.00;1224082;75;2921227;-67
2023/07/11 04:19:03;;;;;;;2.30;2.10;;;;;;;19.91;100.00;97889.09;1223837;75;2930890;-66
2023/07/11 04:21:35;;;;;;;3.75;2.10;;;;;;;19.88;100.00;97895.72;1223617;75;2921259;-65
2023/07/11 04:24:09;;;;;;;3.90;2.80;;;;;;;19.67;100.00;97901.88;1223779;75;2926068;-65
2023/07/11 04:26:44;;;;;;;4.15;2.50;;;;;;;19.74;100.00;97900.53;1224042;75;2920941;-66
2023/07/11 04:29:17;;;;;;;3.50;2.80;;;;;;;19.82;100.00;97900.63;1223216;75;2923953;-67
2023/07/11 04:31:49;;;;;;;2.75;2.40;;;;;;;20.01;100.00;97895.72;1223028;75;2935135;-65
2023/07/11 04:34:22;;;;;;;3.05;2.25;;;;;;;20.05;100.00;97895.41;1223326;75;2923807;-65
2023/07/11 04:36:55;;;;;;;3.80;2.00;;;;;;;20.16;100.00;97886.84;1223430;75;2926896;-68
2023/07/11 04:39:27;;;;;;;2.45;2.25;;;;;;;20.18;100.00;97893.38;1224022;75;2926599;-68
2023/07/11 04:42:03;;;;;;;2.20;2.00;;;;;;;20.22;100.00;97895.81;1224241;75;2927255;-67
2023/07/11 04:44:35;;;;;;;3.70;2.85;;;;;;;20.08;100.00;97895.06;1223908;75;2924170;-66
2023/07/11 04:47:09;;;;;;;4.05;2.85;;;;;;;20.21;100.00;97899.91;1223735;75;2924487;-66
2023/07/11 04:49:42;;;;;;;4.05;3.50;;;;;;;20.09;100.00;97907.69;1224185;75;2924043;-66
2023/07/11 04:52:14;;;;;;;4.65;3.70;;;;;;;20.10;100.00;97905.66;1223358;75;2934386;-67
2023/07/11 04:54:47;;;;;;;5.80;3.70;;;;;;;20.04;100.00;97907.81;1223512;75;2943849;-71
2023/07/11 04:57:22;;;;;;;6.05;4.25;;;;;;;20.03;100.00;97895.94;1223672;75;2921234;-68
2023/07/11 04:59:55;;;;;;;4.90;3.90;;;;;;;20.27;100.00;97897.00;1222153;75;2923010;-68
2023/07/11 05:02:27;;;;;;;4.35;3.40;;;;;;;20.64;100.00;97896.75;1223856;75;2924811;-68
2023/07/11 05:05:00;;;;;;;2.85;2.55;;;;;;;20.80;100.00;97903.22;1224075;75;2928465;-69
2023/07/11 05:07:32;;;;;;;2.75;2.40;;;;;;;20.81;100.00;97898.41;1223392;75;2931886;-67
2023/07/11 05:10:05;;;;;;;3.85;2.55;;;;;;;20.97;100.00;97894.50;1224352;75;2923054;-68
2023/07/11 05:12:40;;;;;;;3.50;2.25;;;;;;;21.14;100.00;97899.69;1224317;75;2924453;-69
2023/07/11 05:15:14;;;;;;;2.90;2.45;;;;;;;21.32;100.00;97905.59;1224325;75;2922606;-69
2023/07/11 05:17:47;;;;;;;2.75;2.45;;;;;;;21.30;100.00;97911.69;1223847;75;2927813;-70
2023/07/11 05:20:19;;;;;;;4.10;3.10;;;;;;;21.27;100.00;97910.75;1223663;75;2932777;-68
2023/07/11 05:22:52;;;;;;;3.25;2.80;;;;;;;21.53;100.00;97911.91;1223703;75;2929229;-70
2023/07/11 05:25:24;;;;;;;3.80;3.40;;;;;;;21.23;100.00;97915.88;1224385;75;2920111;-67
2023/07/11 05:27:59;;;;;;;5.35;3.60;;;;;;;21.31;100.00;97913.19;1224452;75;2925055;-68
2023/07/11 05:30:32;;;;;;;3.80;3.45;;;;;;;21.60;100.00;97916.81;1224048;75;2915592;-68
2023/07/11 05:33:05;;;;;;;4.70;3.30;;;;;;;21.68;100.00;97917.59;1224072;75;2921933;-68
2023/07/11 05:36:38;;;;;;;4.15;3.45;;;;;;;21.69;100.00;97904.41;1224476;75;2917127;-69
2023/07/11 05:39:13;;;;;;;4.50;4.00;;;;;;;21.78;100.00;97908.75;1223720;75;2932211;-67
2023/07/11 05:41:51;;;;;;;5.10;3.95;;;;;;;21.85;100.00;97906.00;1224699;75;2924508;-67
2023/07/11 05:44:28;;;;;;;5.00;4.50;;;;;;;22.12;100.00;97911.38;1224324;75;2916535;-68
2023/07/11 05:47:00;;;;;;;5.90;4.35;;;;;;;22.18;100.00;97909.19;1224048;75;2922159;-67
2023/07/11 05:49:33;;;;;;;4.85;3.95;;;;;;;22.17;100.00;97909.72;1223912;75;2919188;-69
2023/07/11 05:52:06;;;;;;;4.85;4.05;;;;;;;22.36;100.00;97912.28;1223847;75;2927602;-66
2023/07/11 05:54:39;;;;;;;5.00;4.15;;;;;;;22.36;100.00;97912.28;1223953;75;2925300;-67
2023/07/11 05:57:11;;;;;;;6.50;3.80;;;;;;;22.64;100.00;97912.22;1223424;75;2924185;-71
2023/07/11 05:59:46;;;;;;;6.20;5.05;;;;;;;22.54;100.00;97903.63;1223147;75;2919721;-69
2023/07/11 06:02:21;;;;;;;6.75;5.05;;;;;;;22.60;100.00;97908.28;1223339;75;2922821;-67
2023/07/11 06:04:53;;;;;;;8.95;5.10;;;;;;;22.62;100.00;97905.69;1216688;75;2938236;-66
2023/07/11 06:07:27;;;;;;;8.00;5.00;;;;;;;22.58;100.00;97897.66;1163830;75;5228045;-68
2023/07/11 06:10:00;;;;;;;7.75;4.70;;;;;;;23.02;100.00;97900.44;1222809;75;2925137;-70
2023/07/11 06:12:33;;;;;;;4.35;3.55;;;;;;;23.27;100.00;97897.84;1223046;75;2921239;-69
2023/07/11 06:15:10;;;;;;;4.65;3.30;;;;;;;23.58;95.54;97900.66;1223551;75;2919846;-68
2023/07/11 06:17:42;;;;;;;4.65;3.85;;;;;;;23.22;100.00;97904.38;1223801;75;2923931;-68
2023/07/11 06:20:15;;;;;;;6.80;3.55;;;;;;;23.84;100.00;97905.16;1223592;75;2925757;-67
2023/07/11 06:22:48;;;;;;;4.85;3.45;;;;;;;23.83;96.14;97912.03;1223597;75;2923801;-69
2023/07/11 06:25:20;;;;;;;5.45;4.10;;;;;;;23.94;93.24;97920.03;1223250;75;2943167;-68
2023/07/11 06:27:53;;;;;;;5.95;4.30;;;;;;;24.14;93.42;97915.50;1223362;83;2928239;-69
2023/07/11 06:30:28;;;;;;;4.05;3.20;;;;;;;24.49;90.13;97915.81;1220977;75;2977409;-67
2023/07/11 06:33:01;;;;;;;7.40;4.80;;;;;;;24.02;92.25;97908.81;1223731;75;2931660;-68
2023/07/11 06:35:33;;;;;;;5.60;4.30;;;;;;;24.20;91.27;97915.31;1223735;75;2932859;-67
2023/07/11 06:38:06;;;;;;;7.30;4.50;;;;;;;24.39;87.39;97915.63;1224007;75;2928539;-68
2023/07/11 06:40:39;;;;;;;6.50;4.60;;;;;;;24.47;88.14;97909.28;1223079;75;2928190;-67
2023/07/11 06:43:11;;;;;;;5.90;4.50;;;;;;;24.88;85.57;97911.50;1223842;75;2925646;-67
2023/07/11 06:45:49;;;;;;;7.35;5.10;;;;;;;24.69;84.74;97913.31;1224052;75;2920392;-69
2023/07/11 06:48:23;;;;;;;5.80;3.90;;;;;;;24.96;81.46;97908.66;1224348;75;2931160;-72
2023/07/11 06:51:00;;;;;;;7.00;4.55;;;;;;;24.99;77.55;97903.97;1223640;75;2960316;-66
2023/07/11 06:53:35;;;;;;;6.65;4.95;;;;;;;25.02;79.99;97908.47;1224390;75;2924940;-71
2023/07/11 06:56:08;;;;;;;5.55;4.45;;;;;;;25.30;79.51;97910.16;1224655;75;2921036;-68
2023/07/11 06:58:41;;;;;;;5.45;4.30;;;;;;;25.56;76.74;97905.28;1224629;75;2902604;-69
2023/07/11 07:01:17;;;;;;;5.40;4.30;;;;;;;25.72;76.61;97903.84;1225368;75;2920539;-70
2023/07/11 07:03:49;;;;;;;5.30;4.05;;;;;;;25.89;72.17;97903.91;1223153;75;2922117;-68
2023/07/11 07:06:22;;;;;;;5.45;4.40;;;;;;;25.97;69.99;97901.00;1223669;75;2920747;-69
2023/07/11 07:08:55;;;;;;;7.70;4.05;;;;;;;26.11;72.55;97904.22;1224364;75;2922090;-71
2023/07/11 07:11:27;;;;;;;5.70;4.15;;;;;;;26.39;74.67;97902.25;1225016;75;2920196;-70
2023/07/11 07:14:00;;;;;;;3.50;3.00;;;;;;;26.83;71.52;97893.84;1224792;75;2921230;-69
2023/07/11 07:16:35;;;;;;;3.35;2.50;;;;;;;26.95;67.78;97894.78;1222825;75;2927095;-68
2023/07/11 07:19:09;;;;;;;5.35;4.10;;;;;;;26.32;68.29;97893.34;1224892;75;2920367;-70
2023/07/11 07:21:39;;;;;;;3.80;3.40;;;;;;;27.15;67.08;97895.63;1223947;75;2928628;-71
2023/07/11 07:24:12;;;;;;;3.10;2.70;;;;;;;27.26;66.67;97897.19;1223900;75;2927861;-67
2023/07/11 07:26:45;;;;;;;3.75;2.75;;;;;;;27.15;65.55;97887.19;1224434;75;2928789;-66
2023/07/11 07:29:17;;;;;;;9.80;4.55;;;;;;;26.94;64.77;97887.69;1224049;75;2933231;-68
2023/07/11 07:31:52;;;;;;;7.05;4.00;;;;;;;27.08;64.33;97887.31;1224694;75;2919239;-68
2023/07/11 07:34:25;;;;;;;5.35;3.65;;;;;;;27.42;63.01;97886.44;1223604;75;2915298;-67
2023/07/11 07:36:58;;;;;;;6.15;4.60;;;;;;;27.10;64.85;97888.22;1223838;75;2931526;-69
2023/07/11 07:39:30;;;;;;;4.00;3.60;;;;;;;27.85;62.97;97888.91;1223658;75;2930825;-67
2023/07/11 07:42:03;;;;;;;4.30;3.35;;;;;;;27.88;62.79;97890.53;1224232;75;2927577;-68
2023/07/11 07:44:35;;;;;;;5.15;3.95;;;;;;;27.97;60.53;97887.00;1225484;75;2919111;-69
2023/07/11 07:47:11;;;;;;;6.45;3.90;;;;;;;28.18;62.17;97889.25;1224698;75;2926648;-68
2023/07/11 07:49:43;;;;;;;5.70;3.95;;;;;;;28.28;60.37;97884.34;1224642;75;2919855;-67
2023/07/11 07:52:16;;;;;;;3.75;2.95;;;;;;;28.58;61.49;97890.75;1224721;75;2925620;-71
2023/07/11 07:54:48;;;;;;;3.45;2.70;;;;;;;28.90;62.02;97886.66;1224545;75;2921888;-70
2023/07/11 07:57:21;;;;;;;6.20;4.60;;;;;;;28.29;63.37;97885.13;1224122;75;2921729;-69
2023/07/11 07:59:54;;;;;;;5.60;4.50;;;;;;;28.28;64.00;97892.06;1224352;75;2920241;-69
2023/07/11 08:02:31;;;;;;;5.60;3.85;;;;;;;28.31;64.95;97896.50;1223828;75;2926286;-68
2023/07/11 08:05:03;;;;;;;5.80;4.10;;;;;;;28.37;65.07;97886.44;1224608;75;2919851;-69
2023/07/11 08:07:36;;;;;;;7.15;4.20;;;;;;;28.86;62.79;97892.00;1223997;75;2919423;-71
2023/07/11 08:10:10;;;;;;;5.45;3.90;;;;;;;28.98;62.43;97886.47;1224470;75;2924729;-67
2023/07/11 08:12:43;;;;;;;6.35;4.90;;;;;;;28.33;63.16;97886.13;1223471;75;2922312;-68
2023/07/11 08:15:16;;;;;;;6.95;4.45;;;;;;;28.23;62.82;97896.66;1222903;75;3089431;-70
2023/07/11 08:17:51;;;;;;;5.05;3.90;;;;;;;28.50;64.83;97887.31;1224847;75;2915563;-68
2023/07/11 08:20:24;;;;;;;8.35;5.05;;;;;;;28.51;66.01;97891.63;1224215;75;2928994;-68
2023/07/11 08:22:57;;;;;;;5.60;4.30;;;;;;;28.28;67.35;97886.44;1221578;75;3089984;-70
2023/07/11 08:25:29;;;;;;;5.30;4.10;;;;;;;28.46;68.73;97888.53;1183207;75;6274946;-66
2023/07/11 08:28:02;;;;;;;5.70;4.15;;;;;;;28.58;69.46;97883.03;1223997;75;2927220;-68
2023/07/11 08:30:39;;;;;;;6.50;4.90;;;;;;;28.51;66.96;97886.00;1224370;75;2922029;-69
2023/07/11 08:33:14;;;;;;;5.80;4.85;;;;;;;28.63;66.65;97901.69;1224939;75;2925224;-68
2023/07/11 08:35:46;;;;;;;7.05;5.10;;;;;;;28.43;63.34;97891.75;1224755;75;2929390;-68
2023/07/11 08:38:19;;;;;;;6.65;4.60;;;;;;;28.78;62.46;97891.44;1224196;75;2918829;-68
2023/07/11 08:40:52;;;;;;;4.60;4.20;;;;;;;28.85;59.87;97888.44;1223459;75;2921444;-68
2023/07/11 08:43:32;;;;;;;5.55;4.00;;;;;;;29.05;60.29;97891.94;1219808;75;3145476;-68
2023/07/11 08:46:10;;;;;;;6.50;3.90;;;;;;;29.23;59.98;97881.22;1224023;75;2929612;-67
2023/07/11 08:48:49;;;;;;;;;;;;;;;29.08;59.58;97885.16;1225115;75;2925428;-67
2023/07/11 08:51:28;;;;;;;6.00;4.10;;;;;;;29.41;59.90;97875.34;1224411;75;2923117;-69
2023/07/11 08:54:08;;;;;;;5.30;4.10;;;;;;;29.53;59.21;97876.91;1223874;75;2930475;-70
2023/07/11 08:56:46;;;;;;;4.55;3.85;;;;;;;30.01;58.04;97877.22;1224230;75;2923397;-67
2023/07/11 08:59:25;;;;;;;4.95;3.90;;;;;;;30.03;57.66;97878.09;1225140;75;2923444;-67
2023/07/11 09:02:08;;;;;;;4.60;4.10;;;;;;;29.90;57.76;97873.75;1224963;75;2921187;-69
2023/07/11 09:04:52;;;;;;;7.65;4.20;;;;;;;29.79;57.58;97874.41;1224309;75;2936562;-69
2023/07/11 09:07:37;;;;;;;5.90;4.85;;;;;;;29.76;59.12;97864.34;1224116;75;2941924;-69
2023/07/11 09:10:40;;;;;;;7.15;4.85;;;;;;;29.27;59.75;97866.66;1224020;75;2926172;-70
2023/07/11 09:13:57;;;;;;;5.65;4.25;;;;;;;29.82;58.92;97864.72;1224334;75;2920978;-69
2023/07/11 09:16:39;;;;;;;7.00;4.75;;;;;;;29.65;56.97;97862.13;1221798;75;3039770;-69
2023/07/11 09:19:35;;;;;;;6.10;4.85;;;;;;;30.04;57.47;97870.34;1223425;75;2922103;-70
2023/07/11 09:22:22;;;;;;;5.75;4.55;;;;;;;29.79;56.56;97863.13;1223775;75;2927476;-67
2023/07/11 09:25:03;;;;;;;6.10;4.50;;;;;;;30.04;56.56;97873.19;1224006;75;2925568;-69
2023/07/11 09:27:41;;;;;;;5.70;4.50;;;;;;;29.66;57.36;97861.56;1224168;75;2926105;-68
2023/07/11 09:30:23;;;;;;;6.60;4.40;;;;;;;29.95;56.12;97855.00;1223305;75;2929135;-68
2023/07/11 09:32:56;;;;;;;4.80;3.95;;;;;;;30.24;56.64;97859.66;1223992;75;2923587;-68
2023/07/11 09:35:35;;;;;;;5.70;4.90;;;;;;;29.94;56.09;97868.34;1223302;75;2915604;-69
2023/07/11 09:38:17;;;;;;;6.20;4.65;;;;;;;30.04;55.24;97859.81;1224132;75;2925604;-68
2023/07/11 09:40:54;;;;;;;6.55;5.10;;;;;;;29.68;54.94;97866.59;1223363;75;2936122;-67
2023/07/11 09:43:27;;;;;;;8.00;4.60;;;;;;;29.76;55.22;97867.16;1224355;75;2936578;-66
2023/07/11 09:46:00;;;;;;;6.25;4.80;;;;;;;29.94;55.75;97861.97;1224122;75;2924064;-66
2023/07/11 09:48:37;;;;;;;6.65;4.40;;;;;;;30.33;54.88;97859.59;1224086;75;2924960;-69
2023/07/11 09:51:25;;;;;;;6.05;4.35;;;;;;;30.44;54.21;97860.25;1225106;75;2927834;-68
2023/07/11 09:54:01;;;;;;;5.55;4.65;;;;;;;30.71;54.06;97863.38;1224030;75;2921549;-71
2023/07/11 09:56:48;;;;;;;6.35;4.60;;;;;;;31.13;54.33;97861.00;1223954;75;2921865;-70
2023/07/11 09:59:23;;;;;;;6.20;5.20;;;;;;;30.26;56.11;97862.63;1223581;75;2924678;-68
2023/07/11 10:01:59;;;;;;;5.10;3.90;;;;;;;31.27;54.30;97856.22;1223127;75;2922944;-70
2023/07/11 10:04:32;;;;;;;6.20;4.30;;;;;;;31.42;52.68;97871.97;1224568;75;2929846;-67
2023/07/11 10:07:06;;;;;;;6.00;4.05;;;;;;;31.34;52.44;97862.94;1224445;75;2925527;-70
2023/07/11 10:09:49;;;;;;;6.85;4.70;;;;;;;31.56;53.40;97850.19;1224794;75;2932344;-67
2023/07/11 10:12:26;;;;;;;5.95;4.55;;;;;;;30.89;53.68;97854.59;1223728;75;2918581;-66
2023/07/11 10:15:04;;;;;;;5.50;4.60;;;;;;;30.82;53.60;97847.06;1223512;75;2924095;-71
2023/07/11 10:17:39;;;;;;;5.20;4.70;;;;;;;31.16;53.75;97854.09;1224696;75;2945566;-69
2023/07/11 10:20:20;;;;;;;5.85;4.45;;;;;;;31.55;53.75;97853.59;1225080;75;2922882;-68
2023/07/11 10:22:56;;;;;;;5.60;4.25;;;;;;;31.72;53.02;97856.03;1224731;75;2913882;-71
2023/07/11 10:25:32;;;;;;;5.80;4.80;;;;;;;31.60;53.79;97847.56;1220810;75;3110249;-69
2023/07/11 10:28:09;;;;;;;6.50;4.65;;;;;;;31.84;52.59;97844.69;1224446;75;2926556;-71
2023/07/11 10:30:43;;;;;;;5.70;4.80;;;;;;;31.63;54.48;97839.97;1224123;75;2929369;-69
2023/07/11 10:33:24;;;;;;;5.50;4.80;;;;;;;31.54;54.62;97846.50;1224191;75;2915362;-71
2023/07/11 10:36:08;;;;;;;5.50;4.50;;;;;;;31.80;53.23;97842.38;1223208;75;2929234;-67
2023/07/11 10:38:54;;;;;;;7.70;4.50;;;;;;;31.49;51.89;97839.84;1224767;75;2918871;-67
2023/07/11 10:41:35;;;;;;;4.80;4.25;;;;;;;31.63;53.04;97828.63;1225212;75;2924817;-69
2023/07/11 10:44:16;;;;;;;5.85;5.00;;;;;;;31.50;52.87;97832.81;1224614;75;2924785;-66
2023/07/11 10:46:53;;;;;;;8.50;4.80;;;;;;;31.80;52.67;97833.13;1225023;75;2920463;-67
2023/07/11 10:49:40;;;;;;;5.30;4.30;;;;;;;31.52;52.72;97830.13;1225077;75;2921697;-67
2023/07/11 10:52:22;;;;;;;6.10;5.00;;;;;;;31.91;52.80;97828.78;1223343;75;2937693;-68
2023/07/11 10:55:05;;;;;;;7.35;4.90;;;;;;;31.89;52.42;97831.50;1224843;75;2919637;-67
2023/07/11 10:57:46;;;;;;;5.90;4.40;;;;;;;31.92;52.42;97824.59;1223995;75;2930938;-70
2023/07/11 11:00:22;;;;;;;5.65;4.85;;;;;;;31.70;53.99;97824.03;1224649;75;2916219;-67
2023/07/11 11:03:08;;;;;;;6.95;4.25;;;;;;;32.26;52.73;97825.84;1224422;75;2926307;-70
2023/07/11 11:05:53;;;;;;;6.00;4.50;;;;;;;32.12;51.54;97825.03;1224760;75;2921952;-70
2023/07/11 11:08:36;;;;;;;6.85;4.50;;;;;;;31.83;52.87;97823.41;1224802;75;2921534;-68
2023/07/11 11:11:25;;;;;;;5.25;4.60;;;;;;;31.67;52.72;97814.69;1225081;75;2925727;-68
2023/07/11 11:14:12;;;;;;;5.70;4.70;;;;;;;32.50;52.07;97817.97;1224561;75;2930267;-70
2023/07/11 11:17:00;;;;;;;6.30;4.70;;;;;;;32.41;51.16;97816.75;1225052;75;2925314;-70
2023/07/11 11:19:51;;;;;;;5.70;4.70;;;;;;;32.77;50.08;97808.06;1224162;75;2919286;-67
2023/07/11 11:22:36;;;;;;;4.90;4.10;;;;;;;33.38;50.26;97802.75;1223981;75;2925923;-71
2023/07/11 11:25:21;;;;;;;5.90;4.80;;;;;;;32.91;50.06;97805.97;1224278;75;2931969;-69
2023/07/11 11:28:09;;;;;;;5.20;4.50;;;;;;;32.79;48.32;97806.06;1224097;75;2925227;-69
2023/07/11 11:30:59;;;;;;;5.05;4.15;;;;;;;32.66;49.19;97801.84;1223848;75;2929060;-70
2023/07/11 11:33:50;;;;;;;4.90;4.20;;;;;;;32.62;49.90;97798.06;1224409;75;2925828;-69
2023/07/11 11:36:30;;;;;;;5.05;4.30;;;;;;;33.24;50.45;97797.09;1223884;75;2934092;-68
2023/07/11 11:39:27;;;;;;;6.30;5.30;;;;;;;33.53;48.07;97782.22;1224432;75;2920531;-69
2023/07/11 11:42:07;;;;;;;5.70;4.75;;;;;;;32.97;50.78;97788.53;1224033;75;2921476;-69
2023/07/11 11:44:45;;;;;;;5.25;4.75;;;;;;;32.95;50.21;97788.44;1223613;75;2922406;-67
2023/07/11 11:47:22;;;;;;;5.55;4.20;;;;;;;32.87;49.86;97783.81;1223770;75;2928856;-68
2023/07/11 11:49:56;;;;;;;5.80;4.70;;;;;;;33.25;49.08;97778.69;1225083;75;2926637;-69
2023/07/11 11:52:33;;;;;;;5.80;4.35;;;;;;;33.21;50.07;97783.41;1223722;75;2923515;-67
2023/07/11 11:55:39;;;;;;;6.40;4.30;;;;;;;33.14;47.73;97775.97;1223377;75;2918819;-66